PWSweather.com
Personal Weather Stations
Station Observations
KKSTOPEK1
South Central , Topeka, KS 66611

South Central Topeka, KS 66611

Lat: 39.03, Lon: -95.71

Elevation: 945

Station Type: Davis Vantage Vue

http://http://tallgrasspixels.net/weather/index.php

High Low Average
Temperature 91.6°F33.1°C 70.7°F21.5°C 79.5°F26.4°C
Dew Point 75.0°F23.9°C 67.6°F19.8°C 70.3°F21.3°C
Winds 2.9 mph 4.7 kmh Calm Calm 1.0 mph SE1.6 kmh SE
Wind Gusts 9.0 mph14.5 kmh -- 2.0 mph3.2 kmh
Humidity 93% 50% 75%
Pressure 29.96 in1014.6 mb 29.82 in1009.8 mb -
Precipitation 0.54 in13.7 mm - -
Hour Temp Dew Point Humidity Winds Wind Gusts Pressure Precip Precip Rate Daily Precip Total
12:00 AM 77.7°F25.4°C 69.6°F20.9°C 76% 0.1 mph SSE0.2 kmh SSE -- 29.93 in1013.5 mb - 0.00 in0.0 mm 0.00 in0.0 mm
12:10 AM 77.5°F25.3°C 69.3°F20.7°C 76% Calm Calm -- 29.93 in1013.5 mb - 0.00 in0.0 mm 0.00 in0.0 mm
12:20 AM 77.2°F25.1°C 69.4°F20.8°C 77% Calm Calm -- 29.93 in1013.5 mb - 0.00 in0.0 mm 0.00 in0.0 mm
12:30 AM 77.0°F25.0°C 69.2°F20.7°C 77% 0.5 mph SE0.8 kmh SE 1.0 mph1.6 kmh 29.93 in1013.5 mb - 0.00 in0.0 mm 0.00 in0.0 mm
12:40 AM 76.9°F24.9°C 69.5°F20.8°C 78% 0.2 mph S0.3 kmh S 1.0 mph1.6 kmh 29.93 in1013.5 mb - 0.00 in0.0 mm 0.00 in0.0 mm
12:50 AM 76.8°F24.9°C 69.4°F20.8°C 78% 0.2 mph ESE0.3 kmh ESE 1.0 mph1.6 kmh 29.93 in1013.5 mb - 0.00 in0.0 mm 0.00 in0.0 mm
01:00 AM 76.6°F24.8°C 69.2°F20.7°C 78% 1.0 mph SSE1.6 kmh SSE 4.0 mph6.4 kmh 29.92 in1013.2 mb - 0.00 in0.0 mm 0.00 in0.0 mm
01:10 AM 76.6°F24.8°C 69.2°F20.7°C 78% 0.3 mph SSW0.5 kmh SSW 2.0 mph3.2 kmh 29.92 in1013.2 mb - 0.00 in0.0 mm 0.00 in0.0 mm
01:20 AM 76.5°F24.7°C 69.1°F20.6°C 78% 0.1 mph SE0.2 kmh SE 1.0 mph1.6 kmh 29.92 in1013.2 mb - 0.00 in0.0 mm 0.00 in0.0 mm
01:30 AM 76.3°F24.6°C 69.3°F20.7°C 79% Calm Calm -- 29.92 in1013.2 mb - 0.00 in0.0 mm 0.00 in0.0 mm
01:40 AM 76.1°F24.5°C 69.5°F20.8°C 80% 0.5 mph SE0.8 kmh SE 2.0 mph3.2 kmh 29.92 in1013.2 mb - 0.00 in0.0 mm 0.00 in0.0 mm
01:50 AM 75.9°F24.4°C 69.3°F20.7°C 80% Calm Calm -- 29.91 in1012.9 mb - 0.00 in0.0 mm 0.00 in0.0 mm
02:00 AM 75.7°F24.3°C 69.1°F20.6°C 80% 0.1 mph NNE0.2 kmh NNE 1.0 mph1.6 kmh 29.91 in1012.9 mb - 0.00 in0.0 mm 0.00 in0.0 mm
02:10 AM 75.6°F24.2°C 69.4°F20.8°C 81% 0.2 mph SE0.3 kmh SE 2.0 mph3.2 kmh 29.90 in1012.5 mb - 0.00 in0.0 mm 0.00 in0.0 mm
02:20 AM 75.5°F24.2°C 69.3°F20.7°C 81% 0.5 mph SE0.8 kmh SE 1.0 mph1.6 kmh 29.90 in1012.5 mb - 0.00 in0.0 mm 0.00 in0.0 mm
02:30 AM 75.4°F24.1°C 69.2°F20.7°C 81% Calm Calm 1.0 mph1.6 kmh 29.90 in1012.5 mb - 0.00 in0.0 mm 0.00 in0.0 mm
02:40 AM 75.3°F24.1°C 69.1°F20.6°C 81% Calm Calm -- 29.90 in1012.5 mb - 0.00 in0.0 mm 0.00 in0.0 mm
02:50 AM 75.2°F24.0°C 69.0°F20.6°C 81% 0.3 mph ESE0.5 kmh ESE 1.0 mph1.6 kmh 29.90 in1012.5 mb - 0.00 in0.0 mm 0.00 in0.0 mm
03:00 AM 75.0°F23.9°C 68.8°F20.4°C 81% Calm Calm 1.0 mph1.6 kmh 29.90 in1012.5 mb - 0.00 in0.0 mm 0.00 in0.0 mm
03:10 AM 74.7°F23.7°C 68.8°F20.4°C 82% 0.1 mph NE0.2 kmh NE 1.0 mph1.6 kmh 29.90 in1012.5 mb - 0.00 in0.0 mm 0.00 in0.0 mm
03:20 AM 74.6°F23.7°C 68.7°F20.4°C 82% 0.5 mph ENE0.8 kmh ENE 1.0 mph1.6 kmh 29.90 in1012.5 mb - 0.00 in0.0 mm 0.00 in0.0 mm
03:30 AM 74.5°F23.6°C 68.6°F20.3°C 82% Calm Calm -- 29.90 in1012.5 mb - 0.00 in0.0 mm 0.00 in0.0 mm
03:40 AM 74.4°F23.6°C 68.5°F20.3°C 82% 0.2 mph ESE0.3 kmh ESE 1.0 mph1.6 kmh 29.89 in1012.2 mb - 0.00 in0.0 mm 0.00 in0.0 mm
03:50 AM 74.4°F23.6°C 68.5°F20.3°C 82% 0.2 mph SE0.3 kmh SE 1.0 mph1.6 kmh 29.89 in1012.2 mb - 0.00 in0.0 mm 0.00 in0.0 mm
04:00 AM 74.3°F23.5°C 68.5°F20.3°C 82% 0.4 mph SE0.6 kmh SE -- 29.89 in1012.2 mb - 0.00 in0.0 mm 0.00 in0.0 mm
04:10 AM 74.1°F23.4°C 68.3°F20.2°C 82% Calm Calm 1.0 mph1.6 kmh 29.89 in1012.2 mb - 0.00 in0.0 mm 0.00 in0.0 mm
04:20 AM 74.0°F23.3°C 68.5°F20.3°C 83% 0.3 mph SE0.5 kmh SE 1.0 mph1.6 kmh 29.89 in1012.2 mb - 0.00 in0.0 mm 0.00 in0.0 mm
04:30 AM 73.8°F23.2°C 68.4°F20.2°C 83% 0.6 mph SSW1.0 kmh SSW 1.0 mph1.6 kmh 29.89 in1012.2 mb - 0.00 in0.0 mm 0.00 in0.0 mm
04:40 AM 73.7°F23.2°C 68.2°F20.1°C 83% 0.1 mph S0.2 kmh S 1.0 mph1.6 kmh 29.90 in1012.5 mb - 0.00 in0.0 mm 0.00 in0.0 mm
04:50 AM 73.6°F23.1°C 68.1°F20.1°C 83% 0.3 mph SE0.5 kmh SE 1.0 mph1.6 kmh 29.89 in1012.2 mb - 0.00 in0.0 mm 0.00 in0.0 mm
05:00 AM 73.5°F23.1°C 68.0°F20.0°C 83% 0.1 mph WSW0.2 kmh WSW 1.0 mph1.6 kmh 29.90 in1012.5 mb - 0.00 in0.0 mm 0.00 in0.0 mm
05:10 AM 73.5°F23.1°C 68.0°F20.0°C 83% 0.1 mph SE0.2 kmh SE -- 29.90 in1012.5 mb - 0.00 in0.0 mm 0.00 in0.0 mm
05:20 AM 73.4°F23.0°C 67.9°F19.9°C 83% 0.1 mph NE0.2 kmh NE 1.0 mph1.6 kmh 29.90 in1012.5 mb - 0.00 in0.0 mm 0.00 in0.0 mm
05:30 AM 73.3°F22.9°C 68.2°F20.1°C 84% 0.6 mph E1.0 kmh E 1.0 mph1.6 kmh 29.90 in1012.5 mb - 0.00 in0.0 mm 0.00 in0.0 mm
05:40 AM 73.2°F22.9°C 68.1°F20.1°C 84% Calm Calm -- 29.91 in1012.9 mb - 0.00 in0.0 mm 0.00 in0.0 mm
05:50 AM 73.1°F22.8°C 68.0°F20.0°C 84% 0.1 mph E0.2 kmh E -- 29.90 in1012.5 mb - 0.00 in0.0 mm 0.00 in0.0 mm
06:00 AM 73.0°F22.8°C 67.9°F19.9°C 84% Calm Calm 1.0 mph1.6 kmh 29.90 in1012.5 mb - 0.00 in0.0 mm 0.00 in0.0 mm
06:10 AM 73.0°F22.8°C 67.9°F19.9°C 84% 0.1 mph SE0.2 kmh SE 1.0 mph1.6 kmh 29.91 in1012.9 mb - 0.00 in0.0 mm 0.00 in0.0 mm
06:20 AM 73.0°F22.8°C 67.9°F19.9°C 84% 0.1 mph ENE0.2 kmh ENE 1.0 mph1.6 kmh 29.91 in1012.9 mb - 0.00 in0.0 mm 0.00 in0.0 mm
06:30 AM 73.2°F22.9°C 67.7°F19.8°C 83% Calm Calm 1.0 mph1.6 kmh 29.91 in1012.9 mb - 0.00 in0.0 mm 0.00 in0.0 mm
06:40 AM 73.8°F23.2°C 67.9°F19.9°C 82% Calm Calm -- 29.92 in1013.2 mb - 0.00 in0.0 mm 0.00 in0.0 mm
06:50 AM 74.2°F23.4°C 67.6°F19.8°C 80% 0.3 mph SSE0.5 kmh SSE 1.0 mph1.6 kmh 29.92 in1013.2 mb - 0.00 in0.0 mm 0.00 in0.0 mm
07:00 AM 74.5°F23.6°C 67.6°F19.8°C 79% 0.3 mph WNW0.5 kmh WNW 1.0 mph1.6 kmh 29.93 in1013.5 mb - 0.00 in0.0 mm 0.00 in0.0 mm
07:10 AM 74.8°F23.8°C 67.8°F19.9°C 79% 0.1 mph WNW0.2 kmh WNW -- 29.95 in1014.2 mb - 0.00 in0.0 mm 0.00 in0.0 mm
07:20 AM 74.7°F23.7°C 68.2°F20.1°C 80% 0.4 mph WSW0.6 kmh WSW 2.0 mph3.2 kmh 29.96 in1014.6 mb - 0.01 in0.3 mm 0.02 in0.5 mm
07:30 AM 73.0°F22.8°C 68.9°F20.5°C 87% 0.1 mph SE0.2 kmh SE 1.0 mph1.6 kmh 29.96 in1014.6 mb - 0.31 in7.9 mm 0.33 in8.4 mm
07:40 AM 71.3°F21.8°C 68.3°F20.2°C 90% 1.8 mph SSE2.9 kmh SSE 4.0 mph6.4 kmh 29.96 in1014.6 mb - 0.20 in5.1 mm 0.49 in12.4 mm
07:50 AM 71.0°F21.7°C 68.3°F20.2°C 91% 0.9 mph SE1.4 kmh SE 2.0 mph3.2 kmh 29.96 in1014.6 mb - 0.02 in0.5 mm 0.51 in13.0 mm
08:00 AM 71.0°F21.7°C 68.0°F20.0°C 90% 0.6 mph SW1.0 kmh SW 2.0 mph3.2 kmh 29.96 in1014.6 mb - 0.02 in0.5 mm 0.52 in13.2 mm
08:10 AM 71.2°F21.8°C 68.4°F20.2°C 91% 0.4 mph S0.6 kmh S -- 29.96 in1014.6 mb - 0.02 in0.5 mm 0.53 in13.5 mm
08:20 AM 71.0°F21.7°C 68.6°F20.3°C 92% Calm Calm 1.0 mph1.6 kmh 29.96 in1014.6 mb - 0.01 in0.3 mm 0.53 in13.5 mm
08:30 AM 71.0°F21.7°C 68.6°F20.3°C 92% 0.3 mph SE0.5 kmh SE 1.0 mph1.6 kmh 29.95 in1014.2 mb - 0.00 in0.0 mm 0.53 in13.5 mm
08:40 AM 70.8°F21.6°C 68.4°F20.2°C 92% 0.1 mph SW0.2 kmh SW 3.0 mph4.8 kmh 29.95 in1014.2 mb - 0.00 in0.0 mm 0.53 in13.5 mm
08:50 AM 70.9°F21.6°C 68.5°F20.3°C 92% 0.2 mph WSW0.3 kmh WSW 2.0 mph3.2 kmh 29.95 in1014.2 mb - 0.00 in0.0 mm 0.53 in13.5 mm
09:00 AM 70.8°F21.6°C 68.4°F20.2°C 92% Calm Calm -- 29.96 in1014.6 mb - 0.00 in0.0 mm 0.53 in13.5 mm
09:10 AM 70.7°F21.5°C 68.6°F20.3°C 93% 0.1 mph SSE0.2 kmh SSE 1.0 mph1.6 kmh 29.96 in1014.6 mb - 0.01 in0.3 mm 0.54 in13.7 mm
09:20 AM 70.7°F21.5°C 68.6°F20.3°C 93% 0.4 mph SSW0.6 kmh SSW 1.0 mph1.6 kmh 29.96 in1014.6 mb - 0.01 in0.3 mm 0.54 in13.7 mm
09:30 AM 70.8°F21.6°C 68.7°F20.4°C 93% 1.3 mph SE2.1 kmh SE 3.0 mph4.8 kmh 29.96 in1014.6 mb - 0.00 in0.0 mm 0.54 in13.7 mm
09:40 AM 70.9°F21.6°C 68.8°F20.4°C 93% 0.4 mph SSW0.6 kmh SSW -- 29.95 in1014.2 mb - 0.00 in0.0 mm 0.54 in13.7 mm
09:50 AM 71.1°F21.7°C 68.7°F20.4°C 92% 0.9 mph SE1.4 kmh SE 2.0 mph3.2 kmh 29.95 in1014.2 mb - 0.00 in0.0 mm 0.54 in13.7 mm
10:00 AM 71.2°F21.8°C 69.1°F20.6°C 93% 1.0 mph SE1.6 kmh SE 1.0 mph1.6 kmh 29.95 in1014.2 mb - 0.00 in0.0 mm 0.54 in13.7 mm
10:10 AM 71.5°F21.9°C 69.0°F20.6°C 92% 0.1 mph SE0.2 kmh SE 1.0 mph1.6 kmh 29.95 in1014.2 mb - 0.00 in0.0 mm 0.54 in13.7 mm
10:20 AM 71.8°F22.1°C 69.4°F20.8°C 92% 0.4 mph SW0.6 kmh SW 2.0 mph3.2 kmh 29.95 in1014.2 mb - 0.00 in0.0 mm 0.54 in13.7 mm
10:30 AM 72.4°F22.4°C 69.6°F20.9°C 91% 0.6 mph SE1.0 kmh SE 2.0 mph3.2 kmh 29.95 in1014.2 mb - 0.00 in0.0 mm 0.54 in13.7 mm
10:40 AM 73.0°F22.8°C 70.2°F21.2°C 91% 0.1 mph ESE0.2 kmh ESE 1.0 mph1.6 kmh 29.96 in1014.6 mb - 0.00 in0.0 mm 0.54 in13.7 mm
10:50 AM 73.3°F22.9°C 69.9°F21.1°C 89% 1.1 mph E1.8 kmh E 1.0 mph1.6 kmh 29.95 in1014.2 mb - 0.00 in0.0 mm 0.54 in13.7 mm
11:00 AM 74.7°F23.7°C 71.2°F21.8°C 89% 1.4 mph W2.3 kmh W 3.0 mph4.8 kmh 29.95 in1014.2 mb - 0.00 in0.0 mm 0.54 in13.7 mm
11:10 AM 76.2°F24.6°C 71.7°F22.1°C 86% 0.1 mph SSE0.2 kmh SSE -- 29.96 in1014.6 mb - 0.00 in0.0 mm 0.54 in13.7 mm
11:20 AM 76.7°F24.8°C 71.5°F21.9°C 84% 0.4 mph SE0.6 kmh SE 1.0 mph1.6 kmh 29.95 in1014.2 mb - 0.00 in0.0 mm 0.54 in13.7 mm
11:30 AM 77.2°F25.1°C 71.7°F22.1°C 83% 0.5 mph S0.8 kmh S 3.0 mph4.8 kmh 29.95 in1014.2 mb - 0.00 in0.0 mm 0.54 in13.7 mm
11:40 AM 78.3°F25.7°C 72.3°F22.4°C 82% Calm Calm 1.0 mph1.6 kmh 29.96 in1014.6 mb - 0.00 in0.0 mm 0.54 in13.7 mm
11:50 AM 78.8°F26.0°C 72.1°F22.3°C 80% 0.4 mph ENE0.6 kmh ENE -- 29.95 in1014.2 mb - 0.00 in0.0 mm 0.54 in13.7 mm
12:00 PM 79.9°F26.6°C 72.4°F22.4°C 78% 0.7 mph S1.1 kmh S 4.0 mph6.4 kmh 29.95 in1014.2 mb - 0.00 in0.0 mm 0.54 in13.7 mm
12:10 PM 80.1°F26.7°C 72.6°F22.6°C 78% 0.5 mph SE0.8 kmh SE 2.0 mph3.2 kmh 29.94 in1013.9 mb - 0.00 in0.0 mm 0.54 in13.7 mm
12:20 PM 80.8°F27.1°C 72.9°F22.7°C 77% 1.1 mph E1.8 kmh E 2.0 mph3.2 kmh 29.94 in1013.9 mb - 0.00 in0.0 mm 0.54 in13.7 mm
12:30 PM 81.5°F27.5°C 73.2°F22.9°C 76% 0.1 mph SE0.2 kmh SE 1.0 mph1.6 kmh 29.93 in1013.5 mb - 0.00 in0.0 mm 0.54 in13.7 mm
12:40 PM 82.6°F28.1°C 73.5°F23.1°C 74% 2.1 mph SE3.4 kmh SE 9.0 mph14.5 kmh 29.93 in1013.5 mb - 0.00 in0.0 mm 0.54 in13.7 mm
12:50 PM 82.9°F28.3°C 72.9°F22.7°C 72% 2.0 mph E3.2 kmh E 3.0 mph4.8 kmh 29.93 in1013.5 mb - 0.00 in0.0 mm 0.54 in13.7 mm
01:00 PM 83.4°F28.6°C 73.9°F23.3°C 73% 1.3 mph ESE2.1 kmh ESE 6.0 mph9.7 kmh 29.93 in1013.5 mb - 0.00 in0.0 mm 0.54 in13.7 mm
01:10 PM 84.6°F29.2°C 74.1°F23.4°C 71% 1.0 mph SE1.6 kmh SE 3.0 mph4.8 kmh 29.92 in1013.2 mb - 0.00 in0.0 mm 0.54 in13.7 mm
01:20 PM 85.4°F29.7°C 74.1°F23.4°C 69% 2.4 mph SE3.9 kmh SE 4.0 mph6.4 kmh 29.92 in1013.2 mb - 0.00 in0.0 mm 0.54 in13.7 mm
01:30 PM 86.2°F30.1°C 74.8°F23.8°C 69% 1.7 mph SSE2.7 kmh SSE 3.0 mph4.8 kmh 29.91 in1012.9 mb - 0.00 in0.0 mm 0.54 in13.7 mm
01:40 PM 86.7°F30.4°C 74.9°F23.8°C 68% 1.8 mph SE2.9 kmh SE 3.0 mph4.8 kmh 29.91 in1012.9 mb - 0.00 in0.0 mm 0.54 in13.7 mm
01:50 PM 87.1°F30.6°C 74.8°F23.8°C 67% 1.4 mph ESE2.3 kmh ESE 5.0 mph8.0 kmh 29.90 in1012.5 mb - 0.00 in0.0 mm 0.54 in13.7 mm
02:00 PM 87.8°F31.0°C 75.0°F23.9°C 66% 2.2 mph SE3.5 kmh SE 3.0 mph4.8 kmh 29.90 in1012.5 mb - 0.00 in0.0 mm 0.54 in13.7 mm
02:10 PM 88.6°F31.4°C 74.4°F23.6°C 63% 1.6 mph WSW2.6 kmh WSW 3.0 mph4.8 kmh 29.90 in1012.5 mb - 0.00 in0.0 mm 0.54 in13.7 mm
02:20 PM 89.0°F31.7°C 72.3°F22.4°C 58% 2.7 mph SSE4.3 kmh SSE 6.0 mph9.7 kmh 29.89 in1012.2 mb - 0.00 in0.0 mm 0.54 in13.7 mm
02:30 PM 89.4°F31.9°C 72.1°F22.3°C 57% 2.1 mph SSE3.4 kmh SSE 7.0 mph11.3 kmh 29.89 in1012.2 mb - 0.00 in0.0 mm 0.54 in13.7 mm
02:40 PM 89.4°F31.9°C 71.6°F22.0°C 56% 2.3 mph SSE3.7 kmh SSE 2.0 mph3.2 kmh 29.88 in1011.9 mb - 0.00 in0.0 mm 0.54 in13.7 mm
02:50 PM 89.6°F32.0°C 71.3°F21.8°C 55% 2.0 mph SW3.2 kmh SW 3.0 mph4.8 kmh 29.88 in1011.9 mb - 0.00 in0.0 mm 0.54 in13.7 mm
03:00 PM 89.8°F32.1°C 71.5°F21.9°C 55% 1.8 mph SE2.9 kmh SE 2.0 mph3.2 kmh 29.88 in1011.9 mb - 0.00 in0.0 mm 0.54 in13.7 mm
03:10 PM 90.2°F32.3°C 71.3°F21.8°C 54% 1.8 mph SE2.9 kmh SE 1.0 mph1.6 kmh 29.87 in1011.5 mb - 0.00 in0.0 mm 0.54 in13.7 mm
03:20 PM 90.0°F32.2°C 71.1°F21.7°C 54% 1.5 mph SSE2.4 kmh SSE 3.0 mph4.8 kmh 29.87 in1011.5 mb - 0.00 in0.0 mm 0.54 in13.7 mm
03:30 PM 90.2°F32.3°C 71.3°F21.8°C 54% 2.6 mph SE4.2 kmh SE 5.0 mph8.0 kmh 29.86 in1011.2 mb - 0.00 in0.0 mm 0.54 in13.7 mm
03:40 PM 90.2°F32.3°C 70.2°F21.2°C 52% 1.8 mph S2.9 kmh S 5.0 mph8.0 kmh 29.86 in1011.2 mb - 0.00 in0.0 mm 0.54 in13.7 mm
03:50 PM 90.6°F32.6°C 70.6°F21.4°C 52% 1.3 mph SSW2.1 kmh SSW 5.0 mph8.0 kmh 29.86 in1011.2 mb - 0.00 in0.0 mm 0.54 in13.7 mm
04:00 PM 90.6°F32.6°C 71.1°F21.7°C 53% 2.9 mph WSW4.7 kmh WSW 5.0 mph8.0 kmh 29.85 in1010.8 mb - 0.00 in0.0 mm 0.54 in13.7 mm
04:10 PM 90.6°F32.6°C 70.0°F21.1°C 51% 2.6 mph SE4.2 kmh SE 4.0 mph6.4 kmh 29.85 in1010.8 mb - 0.00 in0.0 mm 0.54 in13.7 mm
04:20 PM 90.7°F32.6°C 71.2°F21.8°C 53% 1.0 mph S1.6 kmh S 2.0 mph3.2 kmh 29.84 in1010.5 mb - 0.00 in0.0 mm 0.54 in13.7 mm
04:30 PM 90.7°F32.6°C 70.1°F21.2°C 51% 2.2 mph SSW3.5 kmh SSW 2.0 mph3.2 kmh 29.84 in1010.5 mb - 0.00 in0.0 mm 0.54 in13.7 mm
04:40 PM 91.0°F32.8°C 70.3°F21.3°C 51% 1.8 mph ESE2.9 kmh ESE 5.0 mph8.0 kmh 29.84 in1010.5 mb - 0.00 in0.0 mm 0.54 in13.7 mm
04:50 PM 91.2°F32.9°C 70.5°F21.4°C 51% 0.9 mph SE1.4 kmh SE 3.0 mph4.8 kmh 29.84 in1010.5 mb - 0.00 in0.0 mm 0.54 in13.7 mm
05:00 PM 91.3°F32.9°C 70.7°F21.5°C 51% 0.3 mph SE0.5 kmh SE 1.0 mph1.6 kmh 29.84 in1010.5 mb - 0.00 in0.0 mm 0.54 in13.7 mm
05:10 PM 91.5°F33.1°C 70.8°F21.6°C 51% 0.9 mph SW1.4 kmh SW 1.0 mph1.6 kmh 29.84 in1010.5 mb - 0.00 in0.0 mm 0.54 in13.7 mm
05:20 PM 91.4°F33.0°C 70.2°F21.2°C 50% 1.6 mph WSW2.6 kmh WSW 3.0 mph4.8 kmh 29.83 in1010.2 mb - 0.00 in0.0 mm 0.54 in13.7 mm
05:30 PM 91.6°F33.1°C 70.3°F21.3°C 50% 1.0 mph SSE1.6 kmh SSE 4.0 mph6.4 kmh 29.83 in1010.2 mb - 0.00 in0.0 mm 0.54 in13.7 mm
05:40 PM 91.4°F33.0°C 71.3°F21.8°C 52% 0.9 mph SE1.4 kmh SE 3.0 mph4.8 kmh 29.83 in1010.2 mb - 0.00 in0.0 mm 0.54 in13.7 mm
05:50 PM 91.4°F33.0°C 71.3°F21.8°C 52% 1.2 mph SE1.9 kmh SE 2.0 mph3.2 kmh 29.83 in1010.2 mb - 0.00 in0.0 mm 0.54 in13.7 mm
06:00 PM 91.1°F32.8°C 71.1°F21.7°C 52% 0.9 mph SE1.4 kmh SE 2.0 mph3.2 kmh 29.83 in1010.2 mb - 0.00 in0.0 mm 0.54 in13.7 mm
06:10 PM 90.7°F32.6°C 70.7°F21.5°C 52% 0.4 mph ESE0.6 kmh ESE 1.0 mph1.6 kmh 29.83 in1010.2 mb - 0.00 in0.0 mm 0.54 in13.7 mm
06:20 PM 90.3°F32.4°C 70.9°F21.6°C 53% 2.1 mph SE3.4 kmh SE 3.0 mph4.8 kmh 29.83 in1010.2 mb - 0.00 in0.0 mm 0.54 in13.7 mm
06:30 PM 89.7°F32.1°C 70.3°F21.3°C 53% 1.2 mph ESE1.9 kmh ESE 2.0 mph3.2 kmh 29.82 in1009.8 mb - 0.00 in0.0 mm 0.54 in13.7 mm
06:40 PM 89.2°F31.8°C 70.9°F21.6°C 55% 0.9 mph E1.4 kmh E 2.0 mph3.2 kmh 29.82 in1009.8 mb - 0.00 in0.0 mm 0.54 in13.7 mm
06:50 PM 88.8°F31.6°C 70.5°F21.4°C 55% 1.3 mph ESE2.1 kmh ESE 2.0 mph3.2 kmh 29.83 in1010.2 mb - 0.00 in0.0 mm 0.54 in13.7 mm
07:00 PM 88.3°F31.3°C 71.1°F21.7°C 57% 0.7 mph SE1.1 kmh SE 2.0 mph3.2 kmh 29.83 in1010.2 mb - 0.00 in0.0 mm 0.54 in13.7 mm
07:10 PM 87.4°F30.8°C 70.8°F21.6°C 58% Calm Calm -- 29.83 in1010.2 mb - 0.00 in0.0 mm 0.54 in13.7 mm
07:20 PM 86.4°F30.2°C 70.9°F21.6°C 60% 0.6 mph SE1.0 kmh SE 2.0 mph3.2 kmh 29.83 in1010.2 mb - 0.00 in0.0 mm 0.54 in13.7 mm
07:30 PM 85.6°F29.8°C 71.1°F21.7°C 62% 0.4 mph SE0.6 kmh SE 1.0 mph1.6 kmh 29.83 in1010.2 mb - 0.00 in0.0 mm 0.54 in13.7 mm
07:40 PM 84.9°F29.4°C 70.9°F21.6°C 63% 1.5 mph SE2.4 kmh SE 1.0 mph1.6 kmh 29.83 in1010.2 mb - 0.00 in0.0 mm 0.54 in13.7 mm
07:50 PM 84.3°F29.1°C 71.2°F21.8°C 65% 0.3 mph SSE0.5 kmh SSE -- 29.83 in1010.2 mb - 0.00 in0.0 mm 0.54 in13.7 mm
08:00 PM 83.5°F28.6°C 71.0°F21.7°C 66% 0.2 mph SE0.3 kmh SE 2.0 mph3.2 kmh 29.83 in1010.2 mb - 0.00 in0.0 mm 0.54 in13.7 mm
08:10 PM 82.9°F28.3°C 71.2°F21.8°C 68% Calm Calm -- 29.84 in1010.5 mb - 0.00 in0.0 mm 0.54 in13.7 mm
08:20 PM 82.3°F27.9°C 71.1°F21.7°C 69% 0.1 mph E0.2 kmh E 2.0 mph3.2 kmh 29.84 in1010.5 mb - 0.00 in0.0 mm 0.54 in13.7 mm
08:30 PM 81.7°F27.6°C 71.4°F21.9°C 71% 0.5 mph ESE0.8 kmh ESE -- 29.84 in1010.5 mb - 0.00 in0.0 mm 0.54 in13.7 mm
08:40 PM 81.2°F27.3°C 71.7°F22.1°C 73% 0.1 mph SE0.2 kmh SE 1.0 mph1.6 kmh 29.85 in1010.8 mb - 0.00 in0.0 mm 0.54 in13.7 mm
08:50 PM 80.6°F27.0°C 71.6°F22.0°C 74% Calm Calm 1.0 mph1.6 kmh 29.85 in1010.8 mb - 0.00 in0.0 mm 0.54 in13.7 mm
09:00 PM 80.2°F26.8°C 71.6°F22.0°C 75% 0.1 mph SE0.2 kmh SE -- 29.86 in1011.2 mb - 0.00 in0.0 mm 0.54 in13.7 mm
09:10 PM 80.0°F26.7°C 71.4°F21.9°C 75% 0.1 mph SE0.2 kmh SE -- 29.86 in1011.2 mb - 0.00 in0.0 mm 0.54 in13.7 mm
09:20 PM 79.7°F26.5°C 71.4°F21.9°C 76% Calm Calm 1.0 mph1.6 kmh 29.86 in1011.2 mb - 0.00 in0.0 mm 0.54 in13.7 mm
09:30 PM 79.3°F26.3°C 71.5°F21.9°C 77% Calm Calm -- 29.87 in1011.5 mb - 0.00 in0.0 mm 0.54 in13.7 mm
09:40 PM 79.0°F26.1°C 71.2°F21.8°C 77% 0.5 mph SE0.8 kmh SE 2.0 mph3.2 kmh 29.87 in1011.5 mb - 0.00 in0.0 mm 0.54 in13.7 mm
09:50 PM 78.8°F26.0°C 71.0°F21.7°C 77% 0.1 mph ESE0.2 kmh ESE 1.0 mph1.6 kmh 29.87 in1011.5 mb - 0.00 in0.0 mm 0.54 in13.7 mm
10:00 PM 78.7°F25.9°C 71.3°F21.8°C 78% 0.1 mph SE0.2 kmh SE 1.0 mph1.6 kmh 29.87 in1011.5 mb - 0.00 in0.0 mm 0.54 in13.7 mm
10:10 PM 78.3°F25.7°C 71.2°F21.8°C 79% Calm Calm 1.0 mph1.6 kmh 29.87 in1011.5 mb - 0.00 in0.0 mm 0.54 in13.7 mm
10:20 PM 78.1°F25.6°C 71.1°F21.7°C 79% 0.8 mph SE1.3 kmh SE 1.0 mph1.6 kmh 29.87 in1011.5 mb - 0.00 in0.0 mm 0.54 in13.7 mm
10:30 PM 78.0°F25.6°C 71.3°F21.8°C 80% Calm Calm 1.0 mph1.6 kmh 29.87 in1011.5 mb - 0.00 in0.0 mm 0.54 in13.7 mm
10:40 PM 77.7°F25.4°C 71.0°F21.7°C 80% 0.1 mph SE0.2 kmh SE 1.0 mph1.6 kmh 29.87 in1011.5 mb - 0.00 in0.0 mm 0.54 in13.7 mm
10:50 PM 77.5°F25.3°C 71.2°F21.8°C 81% 0.1 mph ESE0.2 kmh ESE -- 29.87 in1011.5 mb - 0.00 in0.0 mm 0.54 in13.7 mm
11:00 PM 77.4°F25.2°C 71.1°F21.7°C 81% Calm Calm 1.0 mph1.6 kmh 29.88 in1011.9 mb - 0.00 in0.0 mm 0.54 in13.7 mm
11:10 PM 77.4°F25.2°C 71.1°F21.7°C 81% Calm Calm 1.0 mph1.6 kmh 29.88 in1011.9 mb - 0.00 in0.0 mm 0.54 in13.7 mm
11:20 PM 77.1°F25.1°C 70.8°F21.6°C 81% Calm Calm -- 29.88 in1011.9 mb - 0.00 in0.0 mm 0.54 in13.7 mm
11:30 PM 77.0°F25.0°C 70.7°F21.5°C 81% 0.2 mph SE0.3 kmh SE -- 29.87 in1011.5 mb - 0.00 in0.0 mm 0.54 in13.7 mm
11:40 PM 77.0°F25.0°C 70.7°F21.5°C 81% 0.1 mph ESE0.2 kmh ESE 1.0 mph1.6 kmh 29.87 in1011.5 mb - 0.00 in0.0 mm 0.54 in13.7 mm
11:50 PM 77.0°F25.0°C 70.7°F21.5°C 81% 0.1 mph SSE0.2 kmh SSE 1.0 mph1.6 kmh 29.87 in1011.5 mb - 0.00 in0.0 mm 0.54 in13.7 mm